createdAt,value
2018-03-24T00:00:16.641Z,39.33
2018-03-24T00:02:45.047Z,40.47
2018-03-24T00:05:13.453Z,41.37
2018-03-24T00:07:41.917Z,42.80
2018-03-24T00:10:10.326Z,42.57
2018-03-24T00:12:38.738Z,42.73
2018-03-24T00:15:07.201Z,45.93
2018-03-24T00:17:35.602Z,43.83
2018-03-24T00:20:04.037Z,38.47
2018-03-24T00:22:32.497Z,40.33
2018-03-24T00:25:00.906Z,42.70
2018-03-24T00:27:29.321Z,43.47
2018-03-24T00:29:57.781Z,42.77
2018-03-24T00:32:26.190Z,43.03
2018-03-24T00:34:54.598Z,36.67
2018-03-24T00:37:23.046Z,43.37
2018-03-24T00:39:51.457Z,44.77
2018-03-24T00:42:19.891Z,47.23
2018-03-24T00:44:48.362Z,45.03
2018-03-24T00:47:16.770Z,41.13
2018-03-24T00:49:45.178Z,40.90
2018-03-24T00:52:13.649Z,42.17
2018-03-24T00:54:42.062Z,44.70
2018-03-24T00:57:10.481Z,40.40
2018-03-24T00:59:38.941Z,43.87
2018-03-24T01:02:07.366Z,42.00
2018-03-24T01:04:35.789Z,42.67
2018-03-24T01:07:04.269Z,42.03
2018-03-24T01:09:32.689Z,42.80
2018-03-24T01:12:01.130Z,45.67
2018-03-24T01:14:29.802Z,46.57
2018-03-24T01:16:58.214Z,43.77
2018-03-24T01:19:26.617Z,43.80
2018-03-24T01:21:55.086Z,42.40
2018-03-24T01:24:23.501Z,40.93
2018-03-24T01:26:51.906Z,42.27
2018-03-24T01:29:20.457Z,37.87
2018-03-24T01:31:48.866Z,38.53
2018-03-24T01:34:17.273Z,47.17
2018-03-24T01:36:45.738Z,37.60
2018-03-24T01:39:14.146Z,36.97
2018-03-24T01:41:42.554Z,40.90
2018-03-24T01:44:11.005Z,43.77
2018-03-24T01:46:39.421Z,36.37
2018-03-24T01:49:07.832Z,42.10
2018-03-24T01:51:36.303Z,46.23
2018-03-24T01:54:04.742Z,44.33
2018-03-24T01:56:33.154Z,38.13
2018-03-24T01:59:01.629Z,40.67
2018-03-24T02:01:30.048Z,37.57
2018-03-24T02:03:58.462Z,39.83
2018-03-24T02:06:26.917Z,41.53
2018-03-24T02:08:55.327Z,44.43
2018-03-24T02:11:23.749Z,39.73
2018-03-24T02:13:52.210Z,36.00
2018-03-24T02:16:20.613Z,39.67
2018-03-24T02:18:49.018Z,41.00
2018-03-24T02:21:28.201Z,41.03
2018-03-24T02:23:56.610Z,46.60
2018-03-24T02:26:25.044Z,43.93
2018-03-24T02:28:53.498Z,40.37
2018-03-24T02:31:21.898Z,46.27
2018-03-24T02:33:50.310Z,41.97
2018-03-24T02:36:18.758Z,43.83
2018-03-24T02:38:47.169Z,42.73
2018-03-24T02:41:15.574Z,39.53
2018-03-24T02:43:44.042Z,42.23
2018-03-24T02:46:12.450Z,42.80
2018-03-24T02:48:40.865Z,43.70
2018-03-24T02:51:09.326Z,44.03
2018-03-24T02:53:37.731Z,40.57
2018-03-24T02:56:06.150Z,42.47
2018-03-24T02:58:34.607Z,48.23
2018-03-24T03:01:03.034Z,44.70
2018-03-24T03:03:31.450Z,46.33
2018-03-24T03:05:59.915Z,46.50
2018-03-24T03:08:28.325Z,47.37
2018-03-24T03:10:56.734Z,45.93
2018-03-24T03:13:25.188Z,43.27
2018-03-24T03:15:53.598Z,44.77
2018-03-24T03:18:22.008Z,44.23
2018-03-24T03:20:50.550Z,43.17
2018-03-24T03:23:18.958Z,43.43
2018-03-24T03:25:47.365Z,44.47
2018-03-24T03:28:15.833Z,45.43
2018-03-24T03:33:49.353Z,43.33
2018-03-24T03:36:17.758Z,44.37
2018-03-24T03:38:46.166Z,44.60
2018-03-24T03:41:14.908Z,48.17
2018-03-24T03:43:43.325Z,48.33
2018-03-24T03:46:11.909Z,41.43
2018-03-24T03:48:40.361Z,46.03
2018-03-24T03:51:08.769Z,39.40
2018-03-24T03:53:37.173Z,47.77
2018-03-24T03:56:05.629Z,44.60
2018-03-24T03:58:34.048Z,46.43
2018-03-24T04:01:02.454Z,44.87
2018-03-24T04:03:30.901Z,45.17
2018-03-24T04:05:59.314Z,37.63
2018-03-24T04:08:27.717Z,40.23
2018-03-24T04:10:56.162Z,41.63
2018-03-24T04:13:24.573Z,48.07
2018-03-24T04:15:52.987Z,46.77
2018-03-24T04:18:21.437Z,46.43
2018-03-24T04:20:49.841Z,49.67
2018-03-24T04:23:18.249Z,48.33
2018-03-24T04:25:46.712Z,43.93
2018-03-24T04:28:15.117Z,50.47
2018-03-24T04:30:43.525Z,82.80
2018-03-24T04:33:11.970Z,54.50
2018-03-24T04:35:40.382Z,52.33
2018-03-24T04:38:08.798Z,48.33
2018-03-24T04:40:37.262Z,57.77
2018-03-24T04:43:05.666Z,57.80
2018-03-24T04:45:34.074Z,47.87
2018-03-24T04:48:02.529Z,53.27
2018-03-24T04:50:30.964Z,58.57
2018-03-24T04:52:59.378Z,92.90
2018-03-24T04:55:27.834Z,70.70
2018-03-24T04:57:56.260Z,76.07
2018-03-24T05:00:24.678Z,64.13
2018-03-24T05:02:53.129Z,55.33
2018-03-24T05:05:21.534Z,67.53
2018-03-24T05:07:49.939Z,56.60
2018-03-24T05:10:18.402Z,58.20
2018-03-24T05:12:46.818Z,66.57
2018-03-24T05:15:15.226Z,59.87
2018-03-24T05:17:43.683Z,63.13
2018-03-24T05:20:12.106Z,69.93
2018-03-24T05:22:40.523Z,83.17
2018-03-24T05:25:09.001Z,88.90
2018-03-24T05:27:37.406Z,77.93
2018-03-24T05:30:05.833Z,65.53
2018-03-24T05:32:34.294Z,66.27
2018-03-24T05:35:02.706Z,50.30
2018-03-24T05:37:31.115Z,51.50
2018-03-24T05:39:59.565Z,52.97
2018-03-24T05:42:27.973Z,55.73
2018-03-24T05:44:56.378Z,55.37
2018-03-24T05:47:24.827Z,54.20
2018-03-24T05:49:53.233Z,55.03
2018-03-24T05:52:21.638Z,61.57
2018-03-24T05:54:50.090Z,56.87
2018-03-24T05:57:18.490Z,53.60
2018-03-24T05:59:46.894Z,59.43
2018-03-24T06:02:15.621Z,53.80
2018-03-24T06:04:44.025Z,50.87
2018-03-24T06:07:12.430Z,57.63
2018-03-24T06:09:40.902Z,52.07
2018-03-24T06:12:09.309Z,53.87
2018-03-24T06:14:37.725Z,58.10
2018-03-24T06:17:06.174Z,46.53
2018-03-24T06:19:34.574Z,56.20
2018-03-24T06:22:03.031Z,46.73
2018-03-24T06:24:31.478Z,51.23
2018-03-24T06:26:59.890Z,52.17
2018-03-24T06:29:28.293Z,51.27
2018-03-24T06:31:56.758Z,53.37
2018-03-24T06:34:25.215Z,50.33
2018-03-24T06:36:58.212Z,49.77
2018-03-24T06:39:26.651Z,49.90
2018-03-24T06:41:55.061Z,51.07
2018-03-24T06:44:23.514Z,46.20
2018-03-24T06:46:51.928Z,48.50
2018-03-24T06:49:20.336Z,52.57
2018-03-24T06:51:48.781Z,58.90
2018-03-24T06:54:17.186Z,83.50
2018-03-24T06:56:45.609Z,97.87
2018-03-24T06:59:14.179Z,68.60
2018-03-24T07:01:42.590Z,60.27
2018-03-24T07:04:10.993Z,56.53
2018-03-24T07:06:39.544Z,51.70
2018-03-24T07:09:08.122Z,48.07
2018-03-24T07:11:36.534Z,49.23
2018-03-24T07:14:04.998Z,50.57
2018-03-24T07:16:33.412Z,53.03
2018-03-24T07:19:01.850Z,50.43
2018-03-24T07:21:30.319Z,49.03
2018-03-24T07:23:58.725Z,50.33
2018-03-24T07:26:27.126Z,53.10
2018-03-24T07:28:55.617Z,52.37
2018-03-24T07:31:24.030Z,61.97
2018-03-24T07:33:52.438Z,60.57
2018-03-24T07:36:20.901Z,55.13
2018-03-24T07:38:49.310Z,62.17
2018-03-24T07:41:17.730Z,67.63
2018-03-24T07:43:46.197Z,54.40
2018-03-24T07:46:14.607Z,47.83
2018-03-24T07:48:43.018Z,51.90
2018-03-24T07:51:11.465Z,53.90
2018-03-24T07:53:39.869Z,52.80
2018-03-24T07:56:08.274Z,52.13
2018-03-24T07:58:36.733Z,50.40
2018-03-24T08:01:05.162Z,81.93
2018-03-24T08:03:34.579Z,60.03
2018-03-24T08:06:03.039Z,52.90
2018-03-24T08:08:31.446Z,53.77
2018-03-24T08:10:59.854Z,69.37
2018-03-24T08:13:28.322Z,53.87
2018-03-24T08:15:56.731Z,51.03
2018-03-24T08:18:25.137Z,48.93
2018-03-24T08:20:53.590Z,54.10
2018-03-24T08:23:21.998Z,46.47
2018-03-24T08:25:50.410Z,49.17
2018-03-24T08:28:18.866Z,56.80
2018-03-24T08:30:47.273Z,54.67
2018-03-24T08:33:15.689Z,47.37
2018-03-24T08:35:44.146Z,49.10
2018-03-24T08:38:12.549Z,46.50
2018-03-24T08:40:40.958Z,53.37
2018-03-24T08:43:09.417Z,51.20
2018-03-24T08:45:37.829Z,47.83
2018-03-24T08:48:06.248Z,50.40
2018-03-24T08:50:34.705Z,50.57
2018-03-24T08:53:03.114Z,48.47
2018-03-24T08:55:31.518Z,45.70
2018-03-24T08:57:59.994Z,45.93
2018-03-24T09:00:28.426Z,48.83
2018-03-24T09:02:56.826Z,47.07
2018-03-24T09:05:25.289Z,48.17
2018-03-24T09:07:53.699Z,46.30
2018-03-24T09:10:22.110Z,45.20
2018-03-24T09:12:50.566Z,48.33
2018-03-24T09:15:18.973Z,43.53
2018-03-24T09:17:47.389Z,44.00
2018-03-24T09:20:15.845Z,46.57
2018-03-24T09:22:44.249Z,45.53
2018-03-24T09:25:12.654Z,47.33
2018-03-24T09:27:41.123Z,48.13
2018-03-24T09:30:09.530Z,42.57
2018-03-24T09:32:37.942Z,42.30
2018-03-24T09:35:06.414Z,44.37
2018-03-24T09:37:34.829Z,48.60
2018-03-24T09:40:03.250Z,51.40
2018-03-24T09:42:31.706Z,45.90
2018-03-24T09:45:00.109Z,41.70
2018-03-24T09:47:28.545Z,41.93
2018-03-24T09:49:56.989Z,46.80
2018-03-24T09:52:25.397Z,42.00
2018-03-24T09:54:53.802Z,45.27
2018-03-24T09:57:22.254Z,46.27
2018-03-24T09:59:50.661Z,46.73
2018-03-24T10:02:19.066Z,45.10
2018-03-24T10:04:47.530Z,41.57
2018-03-24T10:07:15.941Z,41.23
2018-03-24T10:09:44.363Z,48.00
2018-03-24T10:12:12.824Z,42.30
2018-03-24T10:14:41.237Z,40.37
2018-03-24T10:17:09.646Z,37.97
2018-03-24T10:19:38.102Z,40.93
2018-03-24T10:22:17.174Z,40.07
2018-03-24T10:24:45.645Z,40.37
2018-03-24T10:27:14.078Z,38.83
2018-03-24T10:29:42.490Z,39.40
2018-03-24T10:32:10.973Z,37.20
2018-03-24T10:34:39.402Z,34.93
2018-03-24T10:37:07.822Z,32.87
2018-03-24T10:39:36.294Z,31.73
2018-03-24T10:42:04.733Z,23.10
2018-03-24T10:44:33.149Z,23.57
2018-03-24T10:47:01.626Z,30.10
2018-03-24T10:49:30.050Z,35.73
2018-03-24T10:51:58.473Z,24.47
2018-03-24T10:54:26.926Z,23.27
2018-03-24T10:56:55.332Z,23.37
2018-03-24T10:59:23.733Z,15.30
2018-03-24T11:01:52.213Z,15.43
2018-03-24T11:04:20.618Z,23.60
2018-03-24T11:06:49.026Z,19.43
2018-03-24T11:09:17.485Z,18.27
2018-03-24T11:11:45.894Z,14.90
2018-03-24T11:14:14.297Z,16.83
2018-03-24T11:16:42.762Z,17.83
2018-03-24T11:19:11.174Z,20.43
2018-03-24T11:21:39.590Z,19.07
2018-03-24T11:24:08.054Z,21.50
2018-03-24T11:26:36.469Z,17.57
2018-03-24T11:29:04.890Z,18.87
2018-03-24T11:31:33.346Z,16.03
2018-03-24T11:34:01.763Z,19.03
2018-03-24T11:36:30.174Z,20.17
2018-03-24T11:38:58.662Z,19.33
2018-03-24T11:41:27.085Z,18.90
2018-03-24T11:43:55.498Z,17.70
2018-03-24T11:46:23.961Z,60.93
2018-03-24T11:48:52.373Z,30.13
2018-03-24T11:51:20.786Z,22.17
2018-03-24T11:53:49.275Z,20.70
2018-03-24T11:56:17.718Z,15.97
2018-03-24T11:58:46.138Z,19.83
2018-03-24T12:01:14.605Z,23.50
2018-03-24T12:03:43.054Z,17.33
2018-03-24T12:06:11.466Z,16.20
2018-03-24T12:08:39.927Z,16.27
2018-03-24T12:11:08.338Z,16.27
2018-03-24T12:13:36.750Z,15.63
2018-03-24T12:16:05.230Z,19.40
2018-03-24T12:18:33.657Z,18.60
2018-03-24T12:21:02.083Z,20.57
2018-03-24T12:23:30.544Z,19.40
2018-03-24T12:25:58.958Z,17.77
2018-03-24T12:28:27.364Z,20.23
2018-03-24T12:30:55.818Z,20.03
2018-03-24T12:33:24.234Z,19.13
2018-03-24T12:35:52.646Z,20.60
2018-03-24T12:38:21.122Z,18.10
2018-03-24T12:40:49.539Z,27.50
2018-03-24T12:43:17.955Z,23.43
2018-03-24T12:45:46.435Z,18.00
2018-03-24T12:48:14.854Z,19.80
2018-03-24T12:50:43.271Z,20.60
2018-03-24T12:53:11.738Z,20.47
2018-03-24T12:55:40.151Z,18.40
2018-03-24T12:58:08.570Z,18.60
2018-03-24T13:00:37.840Z,18.70
2018-03-24T13:03:06.261Z,18.43
2018-03-24T13:05:34.678Z,19.53
2018-03-24T13:08:03.170Z,20.10
2018-03-24T13:10:31.595Z,18.67
2018-03-24T13:13:00.030Z,19.83
2018-03-24T13:15:28.506Z,20.13
2018-03-24T13:17:56.933Z,18.13
2018-03-24T13:20:25.361Z,19.90
2018-03-24T13:22:53.857Z,18.50
2018-03-24T13:25:22.278Z,17.67
2018-03-24T13:27:50.710Z,20.20
2018-03-24T13:30:19.190Z,21.13
2018-03-24T13:32:47.620Z,22.83
2018-03-24T13:35:16.065Z,21.90
2018-03-24T13:37:44.549Z,20.97
2018-03-24T13:40:12.990Z,22.50
2018-03-24T13:42:41.427Z,19.77
2018-03-24T13:45:09.918Z,22.93
2018-03-24T13:47:38.354Z,23.93
2018-03-24T13:50:06.803Z,21.93
2018-03-24T13:52:35.294Z,20.40
2018-03-24T13:55:03.770Z,22.73
2018-03-24T13:57:32.217Z,21.90
2018-03-24T14:00:01.353Z,24.10
2018-03-24T14:02:29.793Z,26.13
2018-03-24T14:04:58.230Z,23.40
2018-03-24T14:07:26.723Z,23.47
2018-03-24T14:09:55.162Z,23.67
2018-03-24T14:12:23.597Z,26.20
2018-03-24T14:14:52.126Z,22.80
2018-03-24T14:17:20.561Z,27.30
2018-03-24T14:19:49.006Z,24.33
2018-03-24T14:22:17.525Z,21.70
2018-03-24T14:24:45.962Z,23.63
2018-03-24T14:27:14.397Z,26.23
2018-03-24T14:29:42.881Z,23.87
2018-03-24T14:32:11.321Z,22.97
2018-03-24T14:34:39.757Z,22.83
2018-03-24T14:37:08.425Z,25.10
2018-03-24T14:39:36.866Z,23.97
2018-03-24T14:42:05.310Z,24.10
2018-03-24T14:44:33.795Z,23.43
2018-03-24T14:47:02.241Z,27.53
2018-03-24T14:49:30.678Z,24.93
2018-03-24T14:51:59.162Z,23.70
2018-03-24T14:54:27.647Z,25.47
2018-03-24T14:56:56.073Z,23.10
2018-03-24T14:59:24.558Z,22.23
2018-03-24T15:01:52.993Z,24.13
2018-03-24T15:04:21.433Z,22.20
2018-03-24T15:06:49.926Z,20.80
2018-03-24T15:09:18.370Z,22.63
2018-03-24T15:11:46.813Z,22.80
2018-03-24T15:14:15.304Z,23.67
2018-03-24T15:16:43.746Z,22.57
2018-03-24T15:19:12.210Z,20.70
2018-03-24T15:21:40.698Z,22.17
2018-03-24T15:24:09.138Z,25.30
2018-03-24T15:26:37.576Z,22.30
2018-03-24T15:29:17.827Z,22.23
2018-03-24T15:31:58.182Z,20.97
2018-03-24T15:34:38.391Z,24.17
2018-03-24T15:37:06.829Z,20.60
2018-03-24T15:39:35.261Z,19.47
2018-03-24T15:42:03.777Z,23.10
2018-03-24T15:44:32.217Z,21.77
2018-03-24T15:47:00.659Z,21.17
2018-03-24T15:49:29.347Z,20.00
2018-03-24T15:51:57.787Z,20.33
2018-03-24T15:54:26.226Z,21.77
2018-03-24T15:56:54.729Z,20.03
2018-03-24T15:59:23.166Z,19.03
2018-03-24T16:01:51.614Z,21.03
2018-03-24T16:04:20.101Z,19.83
2018-03-24T16:06:48.546Z,20.23
2018-03-24T16:09:16.990Z,18.90
2018-03-24T16:11:45.486Z,20.53
2018-03-24T16:14:13.926Z,19.47
2018-03-24T16:16:42.358Z,19.67
2018-03-24T16:19:10.856Z,19.07
2018-03-24T16:21:39.294Z,19.13
2018-03-24T16:24:07.839Z,20.57
2018-03-24T16:26:36.338Z,21.77
2018-03-24T16:29:04.777Z,19.10
2018-03-24T16:31:33.210Z,19.70
2018-03-24T16:34:01.703Z,20.70
2018-03-24T16:36:30.137Z,18.70
2018-03-24T16:38:58.581Z,19.70
2018-03-24T16:41:27.108Z,21.93
2018-03-24T16:43:55.554Z,22.00
2018-03-24T16:46:23.996Z,23.80
2018-03-24T16:48:52.478Z,25.10
2018-03-24T16:51:20.926Z,31.13
2018-03-24T16:53:49.370Z,33.33
2018-03-24T16:56:18.050Z,24.87
2018-03-24T16:58:46.490Z,22.63
2018-03-24T17:01:14.930Z,20.50
2018-03-24T17:03:43.413Z,20.17
2018-03-24T17:06:11.849Z,21.40
2018-03-24T17:08:40.289Z,21.53
2018-03-24T17:11:08.770Z,18.20
2018-03-24T17:13:37.210Z,19.07
2018-03-24T17:16:05.705Z,20.87
2018-03-24T17:18:34.174Z,22.43
2018-03-24T17:21:02.627Z,34.00
2018-03-24T17:23:31.066Z,21.83
2018-03-24T17:25:59.545Z,21.60
2018-03-24T17:28:27.981Z,18.63
2018-03-24T17:30:56.464Z,20.57
2018-03-24T17:33:24.925Z,20.47
2018-03-24T17:35:53.358Z,20.40
2018-03-24T17:38:21.811Z,24.13
2018-03-24T17:40:50.309Z,20.83
2018-03-24T17:43:18.761Z,21.43
2018-03-24T17:45:47.213Z,23.03
2018-03-24T17:48:15.744Z,25.77
2018-03-24T17:50:44.189Z,21.73
2018-03-24T17:53:12.708Z,22.17
2018-03-24T17:55:41.205Z,20.87
2018-03-24T17:58:09.646Z,20.93
2018-03-24T18:00:38.085Z,26.97
2018-03-24T18:03:06.597Z,20.17
2018-03-24T18:05:35.075Z,20.93
2018-03-24T18:08:03.542Z,21.10
2018-03-24T18:10:32.022Z,20.83
2018-03-24T18:13:00.461Z,19.20
2018-03-24T18:15:28.898Z,19.40
2018-03-24T18:17:57.382Z,20.20
2018-03-24T18:20:25.818Z,21.80
2018-03-24T18:22:54.269Z,21.20
2018-03-24T18:25:22.765Z,25.07
2018-03-24T18:27:51.201Z,25.13
2018-03-24T18:30:19.641Z,23.70
2018-03-24T18:32:48.156Z,20.50
2018-03-24T18:35:16.598Z,21.67
2018-03-24T18:37:45.035Z,25.70
2018-03-24T18:40:13.519Z,25.47
2018-03-24T18:42:41.963Z,23.40
2018-03-24T18:45:10.432Z,21.30
2018-03-24T18:47:38.930Z,22.63
2018-03-24T18:50:07.369Z,19.73
2018-03-24T18:52:35.806Z,20.67
2018-03-24T18:55:04.322Z,20.13
2018-03-24T18:57:32.762Z,19.53
2018-03-24T19:00:42.430Z,22.43
2018-03-24T19:03:10.834Z,21.07
2018-03-24T19:05:39.261Z,24.63
2018-03-24T19:08:07.756Z,27.57
2018-03-24T19:10:36.176Z,31.07
2018-03-24T19:13:04.589Z,23.40
2018-03-24T19:15:33.061Z,23.23
2018-03-24T19:18:01.477Z,24.70
2018-03-24T19:20:29.900Z,22.47
2018-03-24T19:22:58.369Z,25.77
2018-03-24T19:25:26.774Z,20.47
2018-03-24T19:27:55.179Z,21.73
2018-03-24T19:30:23.645Z,23.03
2018-03-24T19:32:52.068Z,20.73
2018-03-24T19:35:20.474Z,22.67
2018-03-24T19:37:48.921Z,19.63
2018-03-24T19:40:17.326Z,21.73
2018-03-24T19:42:45.738Z,20.30
2018-03-24T19:45:14.234Z,19.57
2018-03-24T19:47:42.646Z,20.30
2018-03-24T19:50:11.073Z,21.67
2018-03-24T19:52:39.544Z,19.73
2018-03-24T19:55:07.958Z,18.43
2018-03-24T19:57:36.377Z,22.40
2018-03-24T20:00:04.891Z,21.90
2018-03-24T20:02:33.306Z,28.43
2018-03-24T20:05:01.718Z,22.83
2018-03-24T20:07:30.170Z,19.93
2018-03-24T20:09:58.579Z,21.40
2018-03-24T20:12:26.986Z,23.97
2018-03-24T20:14:55.462Z,23.23
2018-03-24T20:17:23.868Z,21.50
2018-03-24T20:19:53.045Z,22.57
2018-03-24T20:22:21.489Z,21.00
2018-03-24T20:24:49.921Z,21.57
2018-03-24T20:27:18.329Z,26.50
2018-03-24T20:29:46.794Z,22.63
2018-03-24T20:32:15.207Z,20.40
2018-03-24T20:34:43.621Z,21.53
2018-03-24T20:37:12.076Z,25.37
2018-03-24T20:39:40.485Z,23.00
2018-03-24T20:42:08.898Z,22.83
2018-03-24T20:44:37.393Z,24.33
2018-03-24T20:47:05.817Z,22.77
2018-03-24T20:49:34.229Z,23.77
2018-03-24T20:52:02.690Z,27.53
2018-03-24T20:54:31.098Z,27.23
2018-03-24T20:56:59.521Z,25.97
2018-03-24T20:59:27.986Z,24.13
2018-03-24T21:01:56.389Z,24.10
2018-03-24T21:04:24.795Z,26.53
2018-03-24T21:06:53.266Z,29.80
2018-03-24T21:09:21.674Z,27.73
2018-03-24T21:11:50.080Z,28.70
2018-03-24T21:14:18.554Z,25.23
2018-03-24T21:16:46.966Z,25.67
2018-03-24T21:19:15.374Z,26.47
2018-03-24T21:21:43.857Z,26.97
2018-03-24T21:24:12.267Z,29.30
2018-03-24T21:26:40.673Z,26.13
2018-03-24T21:29:09.129Z,27.13
2018-03-24T21:31:37.549Z,22.27
2018-03-24T21:34:05.962Z,25.30
2018-03-24T21:36:34.426Z,25.93
2018-03-24T21:39:02.868Z,25.00
2018-03-24T21:41:31.274Z,28.50
2018-03-24T21:43:59.726Z,27.90
2018-03-24T21:46:28.139Z,28.23
2018-03-24T21:48:56.550Z,31.33
2018-03-24T21:51:25.093Z,29.73
2018-03-24T21:53:53.526Z,29.07
2018-03-24T21:56:21.933Z,30.03
2018-03-24T21:58:50.412Z,30.37
2018-03-24T22:01:18.845Z,36.43
2018-03-24T22:03:47.270Z,31.17
2018-03-24T22:06:15.716Z,35.00
2018-03-24T22:08:44.135Z,41.27
2018-03-24T22:11:12.559Z,32.70
2018-03-24T22:13:41.026Z,30.63
2018-03-24T22:16:09.434Z,35.67
2018-03-24T22:18:37.857Z,47.00
2018-03-24T22:21:06.559Z,37.33
2018-03-24T22:23:34.970Z,29.03
2018-03-24T22:26:03.378Z,38.53
2018-03-24T22:28:31.829Z,32.80
2018-03-24T22:31:00.233Z,34.70
2018-03-24T22:33:28.638Z,39.00
2018-03-24T22:35:57.088Z,28.37
2018-03-24T22:38:25.494Z,28.53
2018-03-24T22:40:53.901Z,32.57
2018-03-24T22:43:22.367Z,30.43
2018-03-24T22:45:50.787Z,31.13
2018-03-24T22:48:19.194Z,32.73
2018-03-24T22:50:47.871Z,30.33
2018-03-24T22:53:16.282Z,31.83
2018-03-24T22:55:44.696Z,31.57
2018-03-24T22:58:13.145Z,29.67
2018-03-24T23:00:41.564Z,42.97
2018-03-24T23:03:09.967Z,37.23
2018-03-24T23:05:38.447Z,30.40
2018-03-24T23:08:06.850Z,35.80
2018-03-24T23:10:35.253Z,43.93
2018-03-24T23:13:03.702Z,35.87
2018-03-24T23:15:32.110Z,46.27
2018-03-24T23:18:00.526Z,41.07
2018-03-24T23:20:29.008Z,38.00
2018-03-24T23:22:57.415Z,36.90
2018-03-24T23:25:25.822Z,49.07
2018-03-24T23:27:54.294Z,50.90
2018-03-24T23:30:22.690Z,55.77
2018-03-24T23:32:51.093Z,43.83
2018-03-24T23:35:19.549Z,49.70
2018-03-24T23:37:47.969Z,42.07
2018-03-24T23:40:16.373Z,56.37
2018-03-24T23:42:45.038Z,46.47
2018-03-24T23:45:13.445Z,35.43
2018-03-24T23:47:41.845Z,31.93
2018-03-24T23:50:10.300Z,29.57
2018-03-24T23:52:38.709Z,29.03
2018-03-24T23:55:07.115Z,34.10
2018-03-24T23:57:35.581Z,32.87
